Time;durP1;ratioP1;P1;durP2;ratioP2;P2;SDS_P1;SDS_P2;PMS_P1;PMS_P2;Temp;Humidity;BMP_temperature;BMP_pressure;BME280_temperature;BME280_humidity;BME280_pressure;Samples;Min_cycle;Max_cycle;Signal;HPM_P1;HPM_P2
2024/01/02 00:00:06;;;;;;;2.72;0.40;;;;;;;8.58;69.98;98780.72;330682;29;16333;-80
2024/01/02 00:00:19;;;;;;;2.45;0.30;;;;;;;8.61;70.04;98796.16;334120;29;4760;-81
2024/01/02 00:00:31;;;;;;;1.90;0.40;;;;;;;8.61;69.46;98785.78;333364;29;5444;-80
2024/01/02 00:00:43;;;;;;;1.50;0.50;;;;;;;8.62;69.35;98786.66;335304;28;4767;-80
2024/01/02 00:00:55;;;;;;;1.38;0.45;;;;;;;8.61;69.43;98788.38;335633;28;4604;-80
2024/01/02 00:01:07;;;;;;;1.25;0.40;;;;;;;8.60;69.61;98784.09;332264;28;16879;-80
2024/01/02 00:01:19;;;;;;;0.80;0.30;;;;;;;8.65;69.67;98792.53;336460;29;5041;-80
2024/01/02 00:01:31;;;;;;;0.98;0.40;;;;;;;8.63;69.63;98781.38;333259;28;4665;-80
2024/01/02 00:01:43;;;;;;;0.93;0.50;;;;;;;8.63;70.04;98783.13;333043;29;4617;-81
2024/01/02 00:01:56;;;;;;;0.93;0.52;;;;;;;8.66;69.86;98778.69;332242;29;7077;-80
2024/01/02 00:02:08;;;;;;;0.68;0.40;;;;;;;8.65;69.80;98781.34;336351;28;4926;-80
2024/01/02 00:02:21;;;;;;;0.77;0.40;;;;;;;8.65;69.85;98770.97;330698;29;5349;-80
2024/01/02 00:02:33;;;;;;;1.20;0.50;;;;;;;8.66;69.86;98781.28;332914;28;15052;-80
2024/01/02 00:02:45;;;;;;;1.98;0.43;;;;;;;8.65;69.70;98782.16;334236;29;4839;-80
2024/01/02 00:02:57;;;;;;;1.90;0.40;;;;;;;8.63;69.76;98777.97;331301;29;18095;-80
2024/01/02 00:03:09;;;;;;;0.75;0.30;;;;;;;8.63;69.84;98783.97;334117;29;4694;-80
2024/01/02 00:03:23;;;;;;;0.50;0.20;;;;;;;8.64;69.81;98779.66;333056;28;17948;-80
2024/01/02 00:03:35;;;;;;;1.17;0.20;;;;;;;8.67;69.64;98784.72;335910;28;4550;-81
2024/01/02 00:03:48;;;;;;;1.30;0.20;;;;;;;8.67;69.79;98780.38;332862;29;13261;-80
2024/01/02 00:04:01;;;;;;;1.95;0.35;;;;;;;8.69;69.87;98781.19;330454;29;4618;-80
2024/01/02 00:04:13;;;;;;;1.63;0.47;;;;;;;8.68;69.62;98774.28;333640;28;4539;-80
2024/01/02 00:04:25;;;;;;;1.73;0.47;;;;;;;8.71;69.59;98776.78;336291;28;4596;-81
2024/01/02 00:04:37;;;;;;;2.00;0.55;;;;;;;8.72;69.79;98777.63;333734;28;17858;-80
2024/01/02 00:04:49;;;;;;;1.48;0.47;;;;;;;8.71;69.56;98771.59;335945;28;4874;-81
2024/01/02 00:05:03;;;;;;;0.60;0.40;;;;;;;8.69;69.44;98773.41;334677;28;8824;-80
2024/01/02 00:05:15;;;;;;;0.90;0.50;;;;;;;8.67;69.53;98772.63;329965;28;17156;-81
2024/01/02 00:05:27;;;;;;;0.77;0.38;;;;;;;8.68;69.46;98769.13;333742;28;17907;-80
2024/01/02 00:05:39;;;;;;;0.50;0.28;;;;;;;8.69;69.51;98772.53;337378;28;5193;-80
2024/01/02 00:05:52;;;;;;;1.67;0.47;;;;;;;8.67;69.28;98775.22;333956;28;10906;-80
2024/01/02 00:06:04;;;;;;;2.00;0.63;;;;;;;8.68;69.40;98769.13;335832;28;4591;-80
2024/01/02 00:06:16;;;;;;;1.45;0.63;;;;;;;8.67;69.23;98772.63;336411;28;4773;-80
2024/01/02 00:06:29;;;;;;;1.70;0.50;;;;;;;8.68;69.33;98770.88;332840;28;18307;-82
2024/01/02 00:06:41;;;;;;;1.73;0.40;;;;;;;8.69;69.26;98772.53;335895;28;4719;-80
2024/01/02 00:06:53;;;;;;;1.13;0.30;;;;;;;8.68;69.45;98766.53;334331;28;16927;-80
2024/01/02 00:07:05;;;;;;;2.50;0.30;;;;;;;8.72;69.19;98767.25;335978;28;4516;-80
2024/01/02 00:07:17;;;;;;;4.47;0.37;;;;;;;8.67;69.53;98759.66;334255;28;6522;-80
2024/01/02 00:07:29;;;;;;;3.60;0.38;;;;;;;8.69;69.71;98768.22;330460;28;16259;-80
2024/01/02 00:07:41;;;;;;;1.73;0.40;;;;;;;8.67;69.66;98772.63;334414;29;4931;-80
2024/01/02 00:07:53;;;;;;;1.00;0.40;;;;;;;8.65;69.86;98766.63;331953;28;4575;-80
2024/01/02 00:08:06;;;;;;;2.03;0.65;;;;;;;8.63;69.59;98767.59;334011;28;4535;-81
2024/01/02 00:08:18;;;;;;;2.13;0.50;;;;;;;8.54;69.83;98773.97;329522;28;4865;-80
2024/01/02 00:08:30;;;;;;;1.58;0.50;;;;;;;8.49;70.09;98770.72;334920;28;5092;-80
2024/01/02 00:08:43;;;;;;;0.30;0.30;;;;;;;8.49;70.17;98765.53;334650;29;5092;-80
2024/01/02 00:08:55;;;;;;;1.92;0.40;;;;;;;8.47;70.07;98772.53;331728;29;19500;-81
2024/01/02 00:09:07;;;;;;;3.10;0.40;;;;;;;8.54;69.93;98771.41;334100;28;4575;-81
2024/01/02 00:09:19;;;;;;;2.95;0.50;;;;;;;8.58;69.72;98770.38;331444;29;18477;-81
2024/01/02 00:09:31;;;;;;;1.85;0.50;;;;;;;8.56;70.01;98764.41;333925;29;5281;-81
2024/01/02 00:09:43;;;;;;;1.23;0.40;;;;;;;8.53;70.27;98767.09;334199;29;4641;-81
2024/01/02 00:09:55;;;;;;;1.15;0.38;;;;;;;8.58;70.26;98775.56;332370;29;18618;-80
2024/01/02 00:10:07;;;;;;;0.80;0.40;;;;;;;8.61;70.33;98772.81;334703;29;5346;-80
2024/01/02 00:10:20;;;;;;;0.75;0.47;;;;;;;8.59;70.57;98766.88;331318;29;19201;-80
2024/01/02 00:10:32;;;;;;;0.50;0.35;;;;;;;8.56;70.28;98767.00;334314;29;5112;-80
2024/01/02 00:10:44;;;;;;;0.68;0.30;;;;;;;8.57;70.51;98773.84;332172;29;13605;-80
2024/01/02 00:10:56;;;;;;;0.80;0.30;;;;;;;8.56;70.63;98773.00;336029;28;4684;-80
2024/01/02 00:11:09;;;;;;;0.60;0.30;;;;;;;8.51;70.52;98763.72;331248;29;4594;-80
2024/01/02 00:11:21;;;;;;;1.20;0.50;;;;;;;8.47;70.89;98763.03;333563;29;17935;-81
2024/01/02 00:11:33;;;;;;;1.10;0.40;;;;;;;8.44;70.92;98759.69;336324;28;4582;-80
2024/01/02 00:11:45;;;;;;;0.50;0.30;;;;;;;8.44;70.77;98770.06;333807;28;16512;-80
2024/01/02 00:11:57;;;;;;;0.93;0.30;;;;;;;8.45;70.79;98763.97;336402;28;4584;-81
2024/01/02 00:12:09;;;;;;;0.90;0.30;;;;;;;8.44;70.57;98762.28;335078;28;18338;-80
2024/01/02 00:12:22;;;;;;;1.35;0.43;;;;;;;8.45;70.07;98758.78;337622;28;4511;-81
2024/01/02 00:12:34;;;;;;;1.40;0.55;;;;;;;8.49;70.22;98762.94;334420;28;4608;-81
2024/01/02 00:12:46;;;;;;;1.38;0.60;;;;;;;8.50;70.41;98756.88;330393;29;13272;-80
2024/01/02 00:12:58;;;;;;;0.70;0.35;;;;;;;8.54;70.23;98761.03;333998;28;5113;-80
2024/01/02 00:13:10;;;;;;;1.38;0.60;;;;;;;8.57;69.87;98763.50;331451;28;17746;-79
2024/01/02 00:13:22;;;;;;;3.40;0.80;;;;;;;8.59;69.86;98759.09;333632;29;4539;-80
2024/01/02 00:13:34;;;;;;;3.80;0.85;;;;;;;8.57;70.11;98760.91;335020;29;5359;-80
2024/01/02 00:13:47;;;;;;;1.92;0.43;;;;;;;8.53;70.03;98759.34;332414;28;18423;-80
2024/01/02 00:13:59;;;;;;;1.58;0.50;;;;;;;8.51;70.12;98758.53;336043;28;5802;-81
2024/01/02 00:14:11;;;;;;;0.73;0.43;;;;;;;8.51;69.85;98759.41;333037;28;18303;-80
2024/01/02 00:14:28;;;;;;;0.68;0.40;;;;;;;8.53;69.71;98757.59;335123;28;5256;-80
2024/01/02 00:14:41;;;;;;;2.05;0.40;;;;;;;8.54;69.98;98754.09;332651;28;17739;-78
2024/01/02 00:14:53;;;;;;;2.25;0.50;;;;;;;8.55;70.08;98750.63;336651;28;5193;-78
2024/01/02 00:15:06;;;;;;;2.22;0.43;;;;;;;8.54;70.10;98754.09;334282;28;5332;-78
2024/01/02 00:15:18;;;;;;;0.88;0.32;;;;;;;8.59;70.31;98756.50;336295;28;5469;-79
2024/01/02 00:15:30;;;;;;;0.57;0.30;;;;;;;8.59;69.92;98757.38;336464;28;4573;-78
2024/01/02 00:15:42;;;;;;;1.30;0.30;;;;;;;8.59;70.28;98751.31;328622;28;13208;-78
2024/01/02 00:15:54;;;;;;;1.25;0.25;;;;;;;8.59;70.13;98749.59;335902;28;4552;-79
2024/01/02 00:16:06;;;;;;;0.40;0.20;;;;;;;8.50;69.78;98754.28;332582;28;12011;-78
2024/01/02 00:16:18;;;;;;;1.70;0.28;;;;;;;8.45;69.86;98758.78;335890;28;5366;-78
2024/01/02 00:16:30;;;;;;;2.50;0.30;;;;;;;8.42;69.53;98751.16;335905;29;4563;-78
2024/01/02 00:16:42;;;;;;;2.30;0.30;;;;;;;8.38;69.77;98759.00;331808;29;16899;-78
2024/01/02 00:16:54;;;;;;;0.65;0.25;;;;;;;8.44;70.08;98754.53;334426;29;4507;-79
2024/01/02 00:17:06;;;;;;;0.77;0.30;;;;;;;8.47;69.93;98754.38;334551;29;5055;-78
2024/01/02 00:17:18;;;;;;;0.98;0.30;;;;;;;8.49;70.07;98756.03;326445;29;17714;-78
2024/01/02 00:17:31;;;;;;;0.88;0.30;;;;;;;8.51;70.00;98758.53;332890;29;4584;-78
2024/01/02 00:17:43;;;;;;;1.13;0.30;;;;;;;8.50;70.54;98751.69;329353;29;18373;-79
2024/01/02 00:17:55;;;;;;;1.65;0.38;;;;;;;8.54;70.20;98755.84;334051;29;5331;-78
2024/01/02 00:18:07;;;;;;;2.17;0.43;;;;;;;8.52;69.97;98750.72;330846;29;16408;-79
2024/01/02 00:18:19;;;;;;;2.40;0.50;;;;;;;8.50;70.37;98751.69;333922;29;4903;-78
2024/01/02 00:18:32;;;;;;;2.10;0.50;;;;;;;8.52;70.45;98749.88;334398;28;11421;-78
2024/01/02 00:18:44;;;;;;;0.70;0.50;;;;;;;8.52;70.81;98747.31;332002;29;12909;-78
2024/01/02 00:18:56;;;;;;;1.33;0.50;;;;;;;8.53;70.27;98757.59;332939;29;9685;-78
2024/01/02 00:19:09;;;;;;;2.35;0.60;;;;;;;8.54;70.32;98748.09;333247;29;17351;-78
2024/01/02 00:19:21;;;;;;;1.65;0.47;;;;;;;8.56;70.16;98746.28;334707;28;5297;-78
2024/01/02 00:19:33;;;;;;;0.95;0.45;;;;;;;8.57;70.28;98747.94;332904;28;15208;-79
2024/01/02 00:19:45;;;;;;;0.30;0.30;;;;;;;8.55;70.46;98749.75;336346;28;4543;-79
2024/01/02 00:19:57;;;;;;;0.47;0.30;;;;;;;8.53;70.73;98749.84;335618;28;16436;-79
2024/01/02 00:20:09;;;;;;;1.05;0.30;;;;;;;8.52;70.37;98744.72;327814;28;17838;-80
2024/01/02 00:20:22;;;;;;;1.10;0.30;;;;;;;8.54;69.89;98748.09;335193;28;5571;-79
2024/01/02 00:20:34;;;;;;;0.82;0.28;;;;;;;8.60;70.12;98745.25;329607;28;17821;-80
2024/01/02 00:20:46;;;;;;;1.85;0.30;;;;;;;8.57;69.84;98747.94;335507;28;4695;-79
2024/01/02 00:20:58;;;;;;;3.00;0.30;;;;;;;8.58;69.78;98749.66;332438;28;10175;-79
2024/01/02 00:21:10;;;;;;;2.40;0.30;;;;;;;8.55;70.23;98748.03;334483;28;4671;-79
2024/01/02 00:21:22;;;;;;;0.95;0.30;;;;;;;8.56;70.41;98747.13;335224;28;4758;-79
2024/01/02 00:21:34;;;;;;;0.90;0.40;;;;;;;8.53;70.66;98751.56;327331;28;17053;-81
2024/01/02 00:21:46;;;;;;;1.60;0.52;;;;;;;8.54;70.77;98748.09;337199;28;5479;-79
2024/01/02 00:21:58;;;;;;;1.80;0.60;;;;;;;8.55;70.57;98744.56;334197;28;18201;-79
2024/01/02 00:22:10;;;;;;;0.70;0.30;;;;;;;8.55;70.62;98749.75;335996;29;4721;-79
2024/01/02 00:22:22;;;;;;;0.60;0.35;;;;;;;8.55;70.60;98747.16;336492;28;4711;-79
2024/01/02 00:22:34;;;;;;;0.65;0.43;;;;;;;8.54;70.74;98748.09;331637;28;17234;-80
2024/01/02 00:22:49;;;;;;;1.65;0.45;;;;;;;8.54;70.59;98748.91;333920;28;17987;-81
2024/01/02 00:23:02;;;;;;;1.92;0.47;;;;;;;8.54;70.56;98742.91;336658;28;4846;-79
2024/01/02 00:23:14;;;;;;;1.10;0.60;;;;;;;8.54;70.54;98741.16;331736;28;16323;-79
2024/01/02 00:23:26;;;;;;;0.80;0.50;;;;;;;8.55;70.69;98745.44;335718;28;4525;-79
2024/01/02 00:23:38;;;;;;;0.82;0.43;;;;;;;8.52;70.80;98750.72;333465;28;4857;-79
2024/01/02 00:23:50;;;;;;;0.90;0.50;;;;;;;8.54;70.69;98748.09;332279;28;17546;-79
2024/01/02 00:24:03;;;;;;;0.75;0.50;;;;;;;8.54;70.81;98746.31;334238;29;4666;-79
2024/01/02 00:24:15;;;;;;;0.65;0.35;;;;;;;8.53;70.56;98746.38;331404;29;18939;-79
2024/01/02 00:24:27;;;;;;;1.00;0.22;;;;;;;8.51;70.28;98748.19;330930;28;5465;-79
2024/01/02 00:24:39;;;;;;;1.17;0.20;;;;;;;8.54;70.15;98748.09;332614;28;17353;-79
2024/01/02 00:24:51;;;;;;;1.20;0.38;;;;;;;8.56;70.19;98744.53;334086;29;4721;-80
2024/01/02 00:25:06;;;;;;;0.75;0.30;;;;;;;8.58;70.07;98750.47;334405;29;4643;-80
2024/01/02 00:25:18;;;;;;;0.45;0.20;;;;;;;8.57;69.74;98747.94;333463;28;17664;-79
2024/01/02 00:25:30;;;;;;;0.30;0.30;;;;;;;8.58;70.25;98744.47;333761;28;18103;-79
2024/01/02 00:25:42;;;;;;;0.60;0.30;;;;;;;8.59;70.06;98752.19;333107;29;5168;-79
2024/01/02 00:25:54;;;;;;;0.50;0.30;;;;;;;8.58;69.97;98747.06;335257;29;4596;-79
2024/01/02 00:26:07;;;;;;;0.28;0.20;;;;;;;8.57;70.38;98742.75;327082;29;17992;-79
2024/01/02 00:26:19;;;;;;;0.20;0.20;;;;;;;8.59;70.27;98740.97;335083;29;4553;-80
2024/01/02 00:26:31;;;;;;;0.30;0.30;;;;;;;8.64;70.08;98744.22;331482;29;17942;-80
2024/01/02 00:26:43;;;;;;;0.28;0.20;;;;;;;8.65;69.79;98747.66;334677;28;4700;-79
2024/01/02 00:26:55;;;;;;;0.50;0.20;;;;;;;8.65;69.83;98747.66;331537;28;19056;-80
2024/01/02 00:27:07;;;;;;;1.30;0.35;;;;;;;8.62;69.58;98743.44;334798;28;4669;-81
2024/01/02 00:27:19;;;;;;;2.00;0.40;;;;;;;8.58;70.14;98736.69;335603;28;12846;-79
2024/01/02 00:27:32;;;;;;;2.15;0.52;;;;;;;8.56;70.01;98751.47;333469;28;12331;-79
2024/01/02 00:27:44;;;;;;;2.03;0.50;;;;;;;8.53;70.34;98738.59;334184;29;4595;-79
2024/01/02 00:27:57;;;;;;;2.08;0.45;;;;;;;8.51;69.97;98738.69;333487;28;17765;-79
2024/01/02 00:28:10;;;;;;;1.05;0.50;;;;;;;8.55;70.09;98739.41;334521;28;4682;-80
2024/01/02 00:28:22;;;;;;;2.47;0.60;;;;;;;8.57;69.91;98738.44;334692;28;18101;-79
2024/01/02 00:28:35;;;;;;;2.60;0.57;;;;;;;8.57;69.95;98742.75;333041;28;5892;-81
2024/01/02 00:28:47;;;;;;;1.48;0.35;;;;;;;8.57;70.26;98737.59;336938;28;5472;-80
2024/01/02 00:28:59;;;;;;;2.35;0.32;;;;;;;8.58;70.71;98736.69;335418;28;4669;-79
2024/01/02 00:29:11;;;;;;;2.10;0.40;;;;;;;8.58;70.39;98736.69;332390;29;5043;-80
2024/01/02 00:29:23;;;;;;;1.40;0.40;;;;;;;8.57;70.00;98740.19;334814;29;5252;-80
2024/01/02 00:29:35;;;;;;;1.60;0.40;;;;;;;8.59;70.09;98740.97;331296;28;13194;-79
2024/01/02 00:29:47;;;;;;;1.70;0.40;;;;;;;8.62;70.19;98737.44;335250;28;4645;-80
2024/01/02 00:29:59;;;;;;;0.63;0.35;;;;;;;8.64;69.86;98744.22;336883;28;5109;-81
2024/01/02 00:30:12;;;;;;;0.43;0.30;;;;;;;8.64;69.63;98738.22;329070;29;16824;-79
2024/01/02 00:30:24;;;;;;;0.40;0.30;;;;;;;8.62;70.14;98735.69;328844;29;4722;-79
2024/01/02 00:30:36;;;;;;;0.47;0.30;;;;;;;8.60;70.15;98737.47;328544;29;17839;-79
2024/01/02 00:30:48;;;;;;;0.88;0.30;;;;;;;8.57;70.24;98737.59;332763;29;4659;-79
2024/01/02 00:31:01;;;;;;;1.10;0.38;;;;;;;8.50;70.77;98737.00;329972;29;14258;-79
2024/01/02 00:31:13;;;;;;;0.52;0.38;;;;;;;8.51;70.39;98737.81;333825;29;5357;-79
2024/01/02 00:31:25;;;;;;;0.60;0.30;;;;;;;8.49;70.48;98734.44;333505;29;4627;-79
2024/01/02 00:31:37;;;;;;;1.50;0.30;;;;;;;8.51;70.72;98737.81;325124;29;18114;-79
2024/01/02 00:31:49;;;;;;;1.38;0.30;;;;;;;8.51;70.46;98736.09;334028;29;5333;-80
2024/01/02 00:32:01;;;;;;;0.65;0.28;;;;;;;8.49;70.48;98734.44;327725;29;17955;-79
2024/01/02 00:32:14;;;;;;;0.88;0.40;;;;;;;8.49;70.43;98734.44;333699;29;4561;-80
2024/01/02 00:32:26;;;;;;;0.80;0.40;;;;;;;8.50;70.90;98725.78;332172;29;4604;-79
2024/01/02 00:32:38;;;;;;;1.25;0.30;;;;;;;8.51;70.45;98730.06;334329;29;5403;-79
2024/01/02 00:32:52;;;;;;;1.85;0.43;;;;;;;8.51;70.30;98737.81;333434;28;17881;-79
2024/01/02 00:33:04;;;;;;;2.05;0.47;;;;;;;8.53;70.50;98733.44;331031;29;5419;-79
2024/01/02 00:33:17;;;;;;;1.60;0.50;;;;;;;8.53;70.43;98730.84;331707;29;17565;-80
2024/01/02 00:33:29;;;;;;;1.00;0.40;;;;;;;8.53;70.51;98736.03;335496;28;4818;-80
2024/01/02 00:33:42;;;;;;;0.35;0.30;;;;;;;8.50;70.79;98731.81;333767;28;4546;-80
2024/01/02 00:33:54;;;;;;;0.60;0.30;;;;;;;8.42;70.76;98733.03;336294;28;4717;-79
2024/01/02 00:34:06;;;;;;;1.05;0.32;;;;;;;8.39;70.60;98733.94;331626;28;5400;-80
2024/01/02 00:34:18;;;;;;;1.33;0.40;;;;;;;8.39;70.85;98729.63;336272;28;4763;-80
2024/01/02 00:34:30;;;;;;;1.40;0.40;;;;;;;8.41;70.62;98732.19;337056;28;4617;-79
2024/01/02 00:34:42;;;;;;;0.70;0.35;;;;;;;8.44;70.46;98731.22;334495;28;13316;-79
2024/01/02 00:34:55;;;;;;;0.70;0.30;;;;;;;8.46;70.46;98729.41;336700;28;5645;-79
2024/01/02 00:35:07;;;;;;;0.90;0.30;;;;;;;8.48;70.50;98727.59;334136;28;8034;-79
2024/01/02 00:35:19;;;;;;;0.73;0.30;;;;;;;8.48;70.47;98727.59;334614;28;4556;-80
2024/01/02 00:35:31;;;;;;;0.35;0.30;;;;;;;8.47;70.78;98731.09;334400;28;5107;-79
2024/01/02 00:35:43;;;;;;;0.75;0.30;;;;;;;8.51;70.89;98730.06;332988;28;17928;-79
2024/01/02 00:35:55;;;;;;;0.80;0.38;;;;;;;8.51;70.47;98724.88;335854;28;5415;-80
2024/01/02 00:36:11;;;;;;;1.48;0.60;;;;;;;8.53;70.43;98730.84;333033;28;19280;-79
2024/01/02 00:36:23;;;;;;;1.75;0.60;;;;;;;8.50;70.38;98728.38;331768;29;17801;-80
2024/01/02 00:36:35;;;;;;;2.22;0.50;;;;;;;8.44;70.55;98726.03;333545;29;4551;-79
2024/01/02 00:36:47;;;;;;;2.60;0.40;;;;;;;8.43;70.85;98724.34;332897;29;18140;-79
2024/01/02 00:36:59;;;;;;;3.33;0.50;;;;;;;8.42;70.46;98717.47;335494;29;5928;-79
2024/01/02 00:37:12;;;;;;;2.13;0.50;;;;;;;8.41;70.32;98727.00;335747;28;5325;-79
2024/01/02 00:37:24;;;;;;;1.50;0.47;;;;;;;8.42;70.21;98723.50;332833;28;18127;-79
2024/01/02 00:37:36;;;;;;;1.50;0.47;;;;;;;8.39;70.81;98727.03;336278;28;4620;-81
2024/01/02 00:37:48;;;;;;;0.73;0.32;;;;;;;8.41;70.86;98721.81;331095;29;8928;-79
2024/01/02 00:38:00;;;;;;;0.55;0.43;;;;;;;8.45;70.69;98717.34;333705;29;4763;-79
2024/01/02 00:38:13;;;;;;;0.30;0.30;;;;;;;8.47;70.53;98725.91;330833;29;12360;-79
2024/01/02 00:38:27;;;;;;;1.50;0.32;;;;;;;8.50;70.49;98723.22;334754;29;4859;-79
2024/01/02 00:38:39;;;;;;;2.00;0.50;;;;;;;8.53;70.14;98728.25;333091;29;18705;-79
2024/01/02 00:38:51;;;;;;;1.58;0.60;;;;;;;8.55;70.20;98718.66;331397;28;5180;-79
2024/01/02 00:39:03;;;;;;;1.25;0.52;;;;;;;8.54;70.37;98720.44;333167;28;19142;-79
2024/01/02 00:39:15;;;;;;;0.73;0.30;;;;;;;8.54;70.35;98717.00;335938;28;4530;-79
2024/01/02 00:39:27;;;;;;;0.90;0.30;;;;;;;8.52;70.61;98713.63;336185;28;4527;-79
2024/01/02 00:39:39;;;;;;;1.60;0.50;;;;;;;8.55;70.29;98718.66;332790;28;18019;-79
2024/01/02 00:39:51;;;;;;;1.40;0.45;;;;;;;8.56;70.24;98716.03;334438;29;4598;-79
2024/01/02 00:40:04;;;;;;;1.38;0.25;;;;;;;8.52;70.46;98713.63;331387;29;17989;-80
2024/01/02 00:40:16;;;;;;;3.35;0.40;;;;;;;8.47;70.51;98712.94;334839;29;4776;-79
2024/01/02 00:40:28;;;;;;;3.10;0.40;;;;;;;8.46;70.75;98713.88;334307;29;4734;-79
2024/01/02 00:40:40;;;;;;;3.20;0.40;;;;;;;8.44;70.46;98710.50;330204;29;17899;-79
2024/01/02 00:40:52;;;;;;;2.00;0.30;;;;;;;8.46;70.84;98719.06;333901;29;4605;-79
2024/01/02 00:41:05;;;;;;;1.15;0.30;;;;;;;8.46;70.73;98714.72;330724;29;11668;-79
2024/01/02 00:41:17;;;;;;;0.35;0.22;;;;;;;8.48;70.80;98712.06;334395;29;6020;-80
2024/01/02 00:41:29;;;;;;;0.45;0.22;;;;;;;8.47;70.50;98710.34;330824;29;16788;-79
2024/01/02 00:41:42;;;;;;;0.55;0.22;;;;;;;8.49;70.58;98711.16;333267;29;5102;-79
2024/01/02 00:41:54;;;;;;;0.75;0.40;;;;;;;8.46;70.79;98708.69;328393;29;5379;-79
2024/01/02 00:42:06;;;;;;;0.60;0.43;;;;;;;8.44;70.73;98710.50;334498;28;5378;-79
2024/01/02 00:42:21;;;;;;;0.73;0.40;;;;;;;8.49;70.79;98713.72;332138;28;18425;-79
2024/01/02 00:42:34;;;;;;;0.95;0.35;;;;;;;8.49;70.97;98708.56;332106;29;9978;-79
2024/01/02 00:42:46;;;;;;;1.05;0.40;;;;;;;8.47;70.60;98711.22;334863;29;5615;-80
2024/01/02 00:42:57;;;;;;;0.65;0.30;;;;;;;8.49;70.56;98712.00;334657;29;4556;-80
2024/01/02 00:43:10;;;;;;;0.50;0.30;;;;;;;8.48;70.66;98712.91;332594;29;5410;-79
2024/01/02 00:43:22;;;;;;;0.38;0.30;;;;;;;8.44;70.84;98707.91;331613;29;18046;-79
2024/01/02 00:43:34;;;;;;;0.30;0.30;;;;;;;8.44;70.68;98715.69;333443;29;5412;-79
2024/01/02 00:43:46;;;;;;;1.60;0.30;;;;;;;8.48;70.62;98715.50;329101;29;5551;-80
2024/01/02 00:43:58;;;;;;;1.90;0.20;;;;;;;8.50;70.75;98715.44;334323;29;4602;-79
2024/01/02 00:44:11;;;;;;;0.52;0.25;;;;;;;8.46;70.77;98713.88;332032;29;4646;-79
2024/01/02 00:44:23;;;;;;;1.40;0.40;;;;;;;8.46;70.47;98703.50;335504;28;4715;-79
2024/01/02 00:44:35;;;;;;;1.35;0.40;;;;;;;8.45;70.37;98712.16;334468;29;4785;-79
2024/01/02 00:44:47;;;;;;;0.80;0.38;;;;;;;8.46;70.37;98711.28;332567;28;18247;-79
2024/01/02 00:44:59;;;;;;;0.65;0.40;;;;;;;8.43;70.75;98709.66;336246;28;4761;-79
2024/01/02 00:45:11;;;;;;;0.32;0.30;;;;;;;8.46;70.79;98719.88;334548;28;4796;-79
2024/01/02 00:45:23;;;;;;;0.30;0.20;;;;;;;8.50;70.70;98712.84;333379;28;16990;-79
2024/01/02 00:45:35;;;;;;;0.45;0.20;;;;;;;8.52;70.78;98708.44;335863;29;4573;-79
2024/01/02 00:45:48;;;;;;;0.55;0.28;;;;;;;8.56;70.73;98715.19;332857;29;17775;-80
2024/01/02 00:46:00;;;;;;;0.30;0.28;;;;;;;8.62;70.50;98717.53;333790;28;5191;-79
2024/01/02 00:46:12;;;;;;;0.55;0.30;;;;;;;8.62;70.30;98712.34;330974;29;12001;-80
2024/01/02 00:46:24;;;;;;;0.68;0.32;;;;;;;8.61;70.31;98715.84;333237;29;4681;-79
2024/01/02 00:46:36;;;;;;;0.90;0.32;;;;;;;8.62;70.00;98714.94;328433;29;4635;-80
2024/01/02 00:46:48;;;;;;;1.15;0.35;;;;;;;8.59;70.11;98709.88;329354;29;18003;-80
2024/01/02 00:47:00;;;;;;;1.50;0.30;;;;;;;8.58;70.08;98713.38;333328;29;4647;-79
2024/01/02 00:47:12;;;;;;;1.23;0.32;;;;;;;8.56;70.29;98712.59;332147;29;16952;-79
2024/01/02 00:47:26;;;;;;;1.58;0.40;;;;;;;8.56;70.36;98717.78;335966;29;4685;-79
2024/01/02 00:47:38;;;;;;;2.03;0.60;;;;;;;8.56;69.97;98713.44;330869;29;17661;-79
2024/01/02 00:47:51;;;;;;;1.90;0.60;;;;;;;8.56;70.23;98707.44;333442;29;4569;-80
2024/01/02 00:48:04;;;;;;;0.73;0.40;;;;;;;8.58;70.33;98713.38;332200;29;19084;-79
2024/01/02 00:48:16;;;;;;;1.77;0.60;;;;;;;8.60;70.32;98711.56;329896;29;4691;-79
2024/01/02 00:48:28;;;;;;;2.50;0.52;;;;;;;8.63;70.37;98710.59;333362;28;18275;-80
2024/01/02 00:48:40;;;;;;;2.20;0.50;;;;;;;8.61;70.28;98713.25;335490;28;4547;-79
2024/01/02 00:48:53;;;;;;;0.80;0.40;;;;;;;8.59;70.34;98715.06;332623;28;4638;-79
2024/01/02 00:49:05;;;;;;;1.52;0.40;;;;;;;8.57;70.35;98711.69;336002;28;4920;-79
2024/01/02 00:49:17;;;;;;;1.63;0.40;;;;;;;8.56;70.36;98710.00;337137;28;4699;-79
2024/01/02 00:49:29;;;;;;;3.30;0.43;;;;;;;8.58;70.39;98708.22;328731;28;17949;-79
2024/01/02 00:49:41;;;;;;;2.72;0.43;;;;;;;8.57;70.03;98703.91;336748;28;5827;-80
2024/01/02 00:49:53;;;;;;;0.75;0.40;;;;;;;8.54;70.22;98707.47;333408;28;16606;-79
2024/01/02 00:50:06;;;;;;;0.77;0.40;;;;;;;8.56;69.69;98710.00;334409;28;4588;-80
2024/01/02 00:50:20;;;;;;;0.95;0.50;;;;;;;8.56;69.96;98699.66;334601;28;17855;-79
2024/01/02 00:50:32;;;;;;;0.70;0.40;;;;;;;8.57;69.86;98701.31;336142;28;4548;-79
2024/01/02 00:50:44;;;;;;;0.93;0.30;;;;;;;8.57;69.71;98701.31;334824;28;17339;-80
2024/01/02 00:50:56;;;;;;;2.30;0.40;;;;;;;8.59;69.99;98699.50;335842;28;5523;-80
2024/01/02 00:51:09;;;;;;;2.03;0.40;;;;;;;8.62;70.09;98699.41;334444;28;4675;-79
2024/01/02 00:51:20;;;;;;;0.70;0.40;;;;;;;8.56;69.59;98704.84;337182;28;4540;-79
2024/01/02 00:51:33;;;;;;;0.40;0.40;;;;;;;8.51;69.93;98706.75;334120;28;4653;-79
2024/01/02 00:51:45;;;;;;;0.25;0.25;;;;;;;8.47;70.17;98707.78;335232;28;17926;-80
2024/01/02 00:51:57;;;;;;;0.35;0.30;;;;;;;8.46;70.53;98698.34;335714;28;5238;-79
2024/01/02 00:52:09;;;;;;;0.50;0.30;;;;;;;8.42;70.49;98707.97;331124;28;4698;-79
2024/01/02 00:52:21;;;;;;;0.98;0.43;;;;;;;8.40;70.78;98705.38;334006;28;6095;-80
2024/01/02 00:52:33;;;;;;;3.05;0.60;;;;;;;8.42;70.63;98701.94;335066;29;4691;-79
2024/01/02 00:52:45;;;;;;;2.55;0.52;;;;;;;8.42;70.71;98709.72;332955;29;18046;-79
2024/01/02 00:52:57;;;;;;;0.70;0.40;;;;;;;8.40;71.04;98701.97;333879;29;4586;-79
2024/01/02 00:53:09;;;;;;;0.60;0.35;;;;;;;8.42;71.22;98712.31;331695;28;13061;-80
2024/01/02 00:53:22;;;;;;;0.65;0.32;;;;;;;8.44;70.89;98702.72;336609;28;4679;-79
2024/01/02 00:53:34;;;;;;;0.65;0.40;;;;;;;8.44;70.55;98700.13;332384;29;17929;-80
2024/01/02 00:53:46;;;;;;;0.65;0.38;;;;;;;8.44;70.73;98710.50;333035;29;5664;-80
2024/01/02 00:54:01;;;;;;;1.00;0.40;;;;;;;8.45;71.08;98707.00;334915;29;4558;-79
2024/01/02 00:54:13;;;;;;;0.80;0.40;;;;;;;8.46;70.77;98700.91;331954;28;17552;-79
2024/01/02 00:54:25;;;;;;;0.65;0.30;;;;;;;8.48;70.66;98702.53;330925;29;17915;-79
2024/01/02 00:54:37;;;;;;;0.82;0.32;;;;;;;8.50;70.48;98702.47;335993;28;4614;-79
2024/01/02 00:54:51;;;;;;;0.80;0.35;;;;;;;8.46;70.20;98703.50;333493;28;16216;-79
2024/01/02 00:55:04;;;;;;;1.10;0.40;;;;;;;8.40;70.71;98705.38;336077;28;5287;-79
2024/01/02 00:55:16;;;;;;;2.05;0.40;;;;;;;8.36;70.95;98703.81;332836;28;17946;-79
2024/01/02 00:55:29;;;;;;;3.30;0.52;;;;;;;8.36;70.36;98703.81;330615;29;4557;-80
2024/01/02 00:55:41;;;;;;;2.65;0.50;;;;;;;8.40;70.28;98700.22;333682;28;16375;-80
2024/01/02 00:55:53;;;;;;;2.38;0.43;;;;;;;8.40;70.52;98697.63;335893;28;4640;-79
2024/01/02 00:56:05;;;;;;;2.60;0.30;;;;;;;8.40;70.39;98702.81;334267;28;18192;-80
2024/01/02 00:56:18;;;;;;;5.50;0.80;;;;;;;8.44;70.09;98700.13;336867;28;5340;-80
2024/01/02 00:56:30;;;;;;;4.78;0.95;;;;;;;8.43;70.30;98698.44;336079;28;5480;-79
2024/01/02 00:56:42;;;;;;;1.90;0.47;;;;;;;8.41;70.63;98695.94;331322;28;4722;-79
2024/01/02 00:56:54;;;;;;;1.48;0.43;;;;;;;8.43;70.27;98698.44;334350;28;4565;-79
2024/01/02 00:57:06;;;;;;;0.60;0.30;;;;;;;8.43;70.20;98701.03;330684;28;17963;-79
2024/01/02 00:57:18;;;;;;;0.95;0.30;;;;;;;8.44;70.58;98697.53;336846;28;4593;-80
2024/01/02 00:57:30;;;;;;;0.93;0.30;;;;;;;8.45;70.64;98700.09;333027;28;13469;-79
2024/01/02 00:57:42;;;;;;;2.03;0.40;;;;;;;8.46;70.58;98701.75;335136;28;4552;-79
2024/01/02 00:57:54;;;;;;;1.60;0.40;;;;;;;8.47;70.52;98700.88;335908;28;4742;-81
2024/01/02 00:58:06;;;;;;;1.17;0.40;;;;;;;8.46;70.30;98698.34;333830;28;18016;-79
2024/01/02 00:58:18;;;;;;;0.25;0.20;;;;;;;8.46;70.64;98698.34;331414;28;4576;-79
2024/01/02 00:58:34;;;;;;;0.28;0.20;;;;;;;8.49;70.72;98703.38;333638;28;16408;-79
2024/01/02 00:58:46;;;;;;;0.47;0.30;;;;;;;8.50;70.51;98694.72;332182;28;11481;-79
2024/01/02 00:58:58;;;;;;;2.50;0.38;;;;;;;8.54;70.65;98696.28;334926;29;4548;-79
2024/01/02 00:59:13;;;;;;;3.15;0.35;;;;;;;8.56;70.63;98689.28;334726;29;4668;-80
2024/01/02 00:59:26;;;;;;;2.13;0.52;;;;;;;8.58;70.48;98690.06;332118;29;18248;-80
2024/01/02 00:59:38;;;;;;;0.70;0.47;;;;;;;8.59;70.22;98699.50;327254;28;17789;-80
2024/01/02 00:59:50;;;;;;;0.30;0.30;;;;;;;8.59;70.55;98694.34;334507;29;5205;-79